Time;durP1;ratioP1;P1;durP2;ratioP2;P2;SDS_P1;SDS_P2;PMS_P1;PMS_P2;Temp;Humidity;BMP_temperature;BMP_pressure;BME280_temperature;BME280_humidity;BME280_pressure;Samples;Min_cycle;Max_cycle;Signal;HPM_P1;HPM_P2
2022/07/10 00:01:26;;;;;;;4.32;1.02;;;15.70;99.90;;;;;;5029741;28;20026;-72
2022/07/10 00:03:52;;;;;;;2.38;0.30;;;15.60;99.90;;;;;;5028186;28;20448;-72
2022/07/10 00:06:17;;;;;;;2.20;0.40;;;15.60;99.90;;;;;;5027785;28;20033;-72
2022/07/10 00:08:43;;;;;;;2.55;0.57;;;15.50;99.90;;;;;;5028568;28;20030;-71
2022/07/10 00:11:09;;;;;;;3.50;0.57;;;15.50;99.90;;;;;;5032783;28;20120;-70
2022/07/10 00:13:35;;;;;;;3.22;0.45;;;15.50;99.90;;;;;;5028591;28;20026;-71
2022/07/10 00:16:01;;;;;;;5.25;0.70;;;15.40;99.90;;;;;;5027335;28;20041;-72
2022/07/10 00:18:28;;;;;;;5.75;0.57;;;15.40;99.90;;;;;;5027652;28;20057;-71
2022/07/10 00:20:53;;;;;;;3.53;0.73;;;15.30;99.90;;;;;;5028068;28;20033;-70
2022/07/10 00:23:19;;;;;;;7.10;1.15;;;15.30;99.90;;;;;;5027279;28;20035;-72
2022/07/10 00:25:45;;;;;;;4.15;0.65;;;15.30;99.90;;;;;;5029776;28;20412;-71
2022/07/10 00:28:11;;;;;;;3.17;0.57;;;15.20;99.90;;;;;;5029063;28;20038;-71
2022/07/10 00:30:37;;;;;;;4.13;0.45;;;15.10;99.90;;;;;;5027172;28;20033;-71
2022/07/10 00:33:03;;;;;;;5.55;0.60;;;15.10;99.90;;;;;;5030537;28;20033;-71
2022/07/10 00:35:28;;;;;;;1.98;0.40;;;15.10;99.90;;;;;;5033608;28;20030;-72
2022/07/10 00:37:54;;;;;;;5.45;1.17;;;15.10;99.90;;;;;;5031672;28;20102;-70
2022/07/10 00:40:20;;;;;;;3.53;0.45;;;15.00;99.90;;;;;;5029508;28;20107;-71
2022/07/10 00:42:46;;;;;;;1.63;0.43;;;15.00;99.90;;;;;;5026562;28;20033;-72
2022/07/10 00:45:11;;;;;;;4.88;0.40;;;15.00;99.90;;;;;;5035299;28;20033;-71
2022/07/10 00:47:37;;;;;;;2.40;0.70;;;15.00;99.90;;;;;;5033470;28;20573;-72
2022/07/10 00:50:04;;;;;;;2.72;0.50;;;15.00;99.90;;;;;;5030853;28;20124;-70
2022/07/10 00:52:30;;;;;;;3.78;0.40;;;15.00;99.90;;;;;;5028807;28;20485;-72
2022/07/10 00:54:57;;;;;;;5.05;1.27;;;14.90;99.90;;;;;;5029280;28;20083;-71
2022/07/10 00:57:23;;;;;;;3.75;0.70;;;14.90;99.90;;;;;;5036677;28;20033;-72
2022/07/10 00:59:49;;;;;;;2.38;0.50;;;14.80;99.90;;;;;;5036294;28;20030;-70
2022/07/10 01:02:15;;;;;;;2.63;0.70;;;14.80;99.90;;;;;;5033480;28;20057;-72
2022/07/10 01:04:42;;;;;;;3.45;0.65;;;14.80;99.90;;;;;;5028709;28;20409;-71
2022/07/10 01:07:08;;;;;;;1.77;0.45;;;14.80;99.90;;;;;;5027046;28;20069;-72
2022/07/10 01:09:34;;;;;;;1.58;0.32;;;14.80;99.90;;;;;;5028436;28;20105;-70
2022/07/10 01:12:01;;;;;;;3.75;0.85;;;14.70;99.90;;;;;;5031310;28;20100;-71
2022/07/10 01:14:29;;;;;;;5.38;0.55;;;14.70;99.90;;;;;;5028600;28;20079;-70
2022/07/10 01:16:55;;;;;;;2.05;0.38;;;14.70;99.90;;;;;;5027508;28;20033;-72
2022/07/10 01:19:20;;;;;;;6.00;0.60;;;14.70;99.90;;;;;;5028235;28;20060;-71
2022/07/10 01:21:46;;;;;;;3.78;0.80;;;14.60;99.90;;;;;;5026693;28;20030;-72
2022/07/10 01:24:12;;;;;;;2.83;0.60;;;14.60;99.90;;;;;;5027803;28;20049;-72
2022/07/10 01:26:42;;;;;;;4.28;0.47;;;14.60;99.90;;;;;;5025019;28;20033;-72
2022/07/10 01:29:08;;;;;;;6.20;1.02;;;14.50;99.90;;;;;;5025865;28;20053;-71
2022/07/10 01:31:34;;;;;;;4.53;0.57;;;14.50;99.90;;;;;;5027903;28;20034;-71
2022/07/10 01:34:01;;;;;;;1.52;0.60;;;14.50;99.90;;;;;;5025761;28;20482;-71
2022/07/10 01:36:32;;;;;;;2.97;0.55;;;14.40;99.90;;;;;;5027016;28;20030;-71
2022/07/10 01:38:58;;;;;;;1.13;0.40;;;14.40;99.90;;;;;;5026382;28;20096;-71
2022/07/10 01:41:24;;;;;;;1.90;0.32;;;14.40;99.90;;;;;;5027107;28;20059;-72
2022/07/10 01:43:50;;;;;;;9.68;0.98;;;14.40;99.90;;;;;;5026453;28;20033;-72
2022/07/10 01:46:16;;;;;;;1.75;0.40;;;14.40;99.90;;;;;;5028536;28;20041;-71
2022/07/10 01:48:43;;;;;;;3.53;0.45;;;14.50;99.90;;;;;;5026173;28;20557;-70
2022/07/10 01:51:10;;;;;;;4.75;0.60;;;14.50;99.90;;;;;;5028540;28;20446;-71
2022/07/10 01:53:36;;;;;;;2.70;0.55;;;14.50;99.90;;;;;;5030261;28;20041;-72
2022/07/10 01:56:05;;;;;;;5.43;1.27;;;14.50;99.90;;;;;;5029571;28;20041;-71
2022/07/10 01:58:31;;;;;;;5.93;0.82;;;14.50;99.90;;;;;;5028364;28;20037;-72
2022/07/10 02:00:57;;;;;;;9.60;1.00;;;14.50;99.90;;;;;;5032579;28;20068;-72
2022/07/10 02:06:07;;;;;;;7.35;0.63;;;14.40;99.90;;;;;;5029639;28;20048;-72
2022/07/10 02:08:32;;;;;;;5.97;0.70;;;14.40;99.90;;;;;;5029919;28;20041;-72
2022/07/10 02:10:58;;;;;;;7.82;0.98;;;14.40;99.90;;;;;;5032591;28;20087;-71
2022/07/10 02:13:27;;;;;;;3.38;0.57;;;14.30;99.90;;;;;;5031289;28;20486;-71
2022/07/10 02:15:53;;;;;;;1.58;0.32;;;14.40;99.90;;;;;;5030134;28;20116;-72
2022/07/10 02:18:19;;;;;;;3.28;0.50;;;14.30;99.90;;;;;;5031299;28;20095;-70
2022/07/10 02:20:45;;;;;;;4.43;0.88;;;14.30;99.90;;;;;;5031001;28;20033;-70
2022/07/10 02:23:10;;;;;;;8.65;0.70;;;14.20;99.90;;;;;;5030828;28;20056;-72
2022/07/10 02:25:36;;;;;;;1.77;0.28;;;14.20;99.90;;;;;;5036100;28;20117;-71
2022/07/10 02:28:01;;;;;;;2.17;0.43;;;14.20;99.90;;;;;;5037260;28;20097;-71
2022/07/10 02:30:27;;;;;;;2.28;0.60;;;14.20;99.90;;;;;;5038952;28;21283;-70
2022/07/10 02:32:52;;;;;;;4.65;0.43;;;14.20;99.90;;;;;;5033456;28;20489;-73
2022/07/10 02:35:18;;;;;;;2.45;0.50;;;14.10;99.90;;;;;;5031804;28;20509;-70
2022/07/10 02:37:44;;;;;;;1.80;0.40;;;14.10;99.90;;;;;;5029222;28;20053;-71
2022/07/10 02:40:10;;;;;;;3.60;0.80;;;14.10;99.90;;;;;;5030474;28;20045;-71
2022/07/10 02:42:36;;;;;;;3.60;0.70;;;14.00;99.90;;;;;;5028726;28;20052;-72
2022/07/10 02:45:01;;;;;;;8.13;0.75;;;14.00;99.90;;;;;;5029468;28;20034;-71
2022/07/10 02:47:27;;;;;;;3.90;0.40;;;14.10;99.90;;;;;;5030274;28;20041;-71
2022/07/10 02:49:53;;;;;;;4.07;1.30;;;14.10;99.90;;;;;;5030719;28;20030;-72
2022/07/10 02:52:18;;;;;;;6.38;0.80;;;14.20;99.90;;;;;;5030299;28;20048;-71
2022/07/10 02:54:44;;;;;;;8.10;0.90;;;14.30;99.90;;;;;;5030106;28;20029;-71
2022/07/10 02:57:09;;;;;;;5.35;0.73;;;14.30;99.90;;;;;;5029952;28;20045;-72
2022/07/10 02:59:35;;;;;;;6.10;0.90;;;14.40;99.90;;;;;;5031347;28;20037;-70
2022/07/10 03:02:01;;;;;;;3.75;0.57;;;14.40;99.90;;;;;;5031634;28;20026;-72
2022/07/10 03:04:27;;;;;;;4.82;0.73;;;14.50;99.90;;;;;;5030669;28;20044;-72
2022/07/10 03:06:53;;;;;;;3.38;0.75;;;14.50;99.90;;;;;;5031320;28;20489;-72
2022/07/10 03:09:18;;;;;;;2.90;0.30;;;14.60;99.90;;;;;;5030640;28;20049;-70
2022/07/10 03:11:44;;;;;;;1.27;0.50;;;14.60;99.90;;;;;;5031998;28;20040;-72
2022/07/10 03:14:10;;;;;;;1.80;0.52;;;14.60;99.90;;;;;;5031481;28;20524;-72
2022/07/10 03:16:35;;;;;;;4.63;1.10;;;14.60;99.90;;;;;;5037276;28;20068;-71
2022/07/10 03:19:01;;;;;;;0.95;0.38;;;14.70;99.90;;;;;;5037819;28;20029;-72
2022/07/10 03:21:26;;;;;;;3.03;0.55;;;14.70;99.90;;;;;;5032573;28;20059;-72
2022/07/10 03:23:52;;;;;;;1.92;0.52;;;14.70;99.90;;;;;;5030271;28;20049;-70
2022/07/10 03:26:17;;;;;;;4.45;0.70;;;14.70;99.90;;;;;;5033339;28;20033;-72
2022/07/10 03:28:43;;;;;;;2.70;0.60;;;14.80;99.90;;;;;;5030573;28;20048;-70
2022/07/10 03:31:08;;;;;;;3.17;0.65;;;14.80;99.90;;;;;;5030391;28;20037;-71
2022/07/10 03:33:34;;;;;;;2.63;0.43;;;14.80;99.90;;;;;;5029727;28;20087;-71
2022/07/10 03:36:03;;;;;;;2.88;0.63;;;14.80;99.90;;;;;;5029425;28;20037;-72
2022/07/10 03:38:28;;;;;;;5.40;0.60;;;14.80;99.90;;;;;;5030189;28;20175;-72
2022/07/10 03:40:54;;;;;;;2.60;1.13;;;14.90;99.90;;;;;;5029828;28;20125;-70
2022/07/10 03:43:22;;;;;;;3.45;0.85;;;14.80;99.90;;;;;;5029705;28;20621;-70
2022/07/10 03:45:48;;;;;;;6.07;0.90;;;14.90;99.90;;;;;;5035517;28;20038;-72
2022/07/10 03:48:13;;;;;;;4.90;0.82;;;14.90;99.90;;;;;;5030063;28;20144;-72
2022/07/10 03:50:39;;;;;;;4.88;0.43;;;14.90;99.90;;;;;;5030694;28;20029;-71
2022/07/10 03:53:04;;;;;;;3.25;0.50;;;14.90;99.90;;;;;;5031939;28;20040;-71
2022/07/10 03:55:30;;;;;;;5.10;0.55;;;14.90;99.90;;;;;;5030003;28;20029;-72
2022/07/10 03:58:02;;;;;;;2.58;0.68;;;15.00;99.90;;;;;;5036050;28;20041;-72
2022/07/10 04:00:28;;;;;;;1.65;0.35;;;15.00;99.90;;;;;;5043729;28;20033;-70
2022/07/10 04:03:06;;;;;;;5.78;1.38;;;15.00;99.90;;;;;;5036925;28;20091;-71
2022/07/10 04:05:33;;;;;;;9.68;0.60;;;15.00;99.90;;;;;;5027796;28;20176;-72
2022/07/10 04:07:59;;;;;;;9.98;1.13;;;15.00;99.90;;;;;;5026128;28;20045;-72
2022/07/10 04:10:26;;;;;;;3.70;1.05;;;15.10;99.90;;;;;;5030987;28;20060;-69
2022/07/10 04:12:52;;;;;;;2.50;0.30;;;15.10;99.90;;;;;;5027800;28;20211;-70
2022/07/10 04:15:17;;;;;;;4.55;0.93;;;15.10;99.90;;;;;;5030576;28;20116;-72
2022/07/10 04:17:43;;;;;;;2.95;0.50;;;15.10;99.90;;;;;;5029473;28;20515;-70
2022/07/10 04:20:09;;;;;;;2.15;0.43;;;15.20;99.90;;;;;;5029734;28;20042;-70
2022/07/10 04:22:35;;;;;;;3.22;0.35;;;15.20;99.90;;;;;;5030011;28;20506;-71
2022/07/10 04:25:01;;;;;;;4.93;0.60;;;15.20;99.90;;;;;;5031737;28;20040;-72
2022/07/10 04:27:28;;;;;;;3.13;0.50;;;15.20;99.90;;;;;;5026371;28;20029;-72
2022/07/10 04:29:53;;;;;;;7.10;0.93;;;15.20;99.90;;;;;;5029662;28;20049;-71
2022/07/10 04:32:19;;;;;;;3.67;0.65;;;15.30;99.90;;;;;;5035463;28;20045;-72
2022/07/10 04:34:45;;;;;;;2.47;0.70;;;15.30;99.90;;;;;;5037850;28;20041;-71
2022/07/10 04:37:10;;;;;;;6.00;1.20;;;15.30;99.90;;;;;;5033815;28;20045;-71
2022/07/10 04:39:37;;;;;;;7.25;1.00;;;15.40;99.90;;;;;;5030662;28;20026;-72
2022/07/10 04:42:04;;;;;;;5.43;1.08;;;15.40;99.90;;;;;;5030046;28;20037;-72
2022/07/10 04:44:30;;;;;;;3.92;1.00;;;15.40;99.90;;;;;;5029897;28;20040;-72
2022/07/10 04:46:55;;;;;;;9.10;0.90;;;15.40;99.90;;;;;;5029308;28;20034;-72
2022/07/10 04:49:21;;;;;;;3.78;0.80;;;15.40;99.90;;;;;;5030296;28;20037;-71
2022/07/10 04:51:47;;;;;;;3.63;1.05;;;15.50;99.90;;;;;;5028323;28;20075;-72
2022/07/10 04:54:13;;;;;;;5.88;0.90;;;15.50;99.90;;;;;;5028214;28;20034;-72
2022/07/10 04:56:38;;;;;;;4.65;0.80;;;15.50;99.90;;;;;;5029688;28;20056;-71
2022/07/10 04:59:04;;;;;;;5.88;0.88;;;15.50;99.90;;;;;;5029806;28;20478;-72
2022/07/10 05:01:29;;;;;;;6.57;0.70;;;15.50;99.90;;;;;;5030065;28;20116;-72
2022/07/10 05:03:55;;;;;;;1.33;0.50;;;15.50;99.90;;;;;;5028688;28;20036;-72
2022/07/10 05:06:21;;;;;;;4.80;0.60;;;15.50;99.90;;;;;;5030066;28;20543;-71
2022/07/10 05:08:46;;;;;;;3.20;0.55;;;15.50;99.90;;;;;;5028102;28;20045;-72
2022/07/10 05:11:12;;;;;;;4.25;0.85;;;15.60;99.90;;;;;;5029670;28;20033;-72
2022/07/10 05:13:37;;;;;;;2.67;0.28;;;15.50;99.90;;;;;;5029167;28;20089;-70
2022/07/10 05:16:04;;;;;;;2.15;0.40;;;15.50;99.90;;;;;;5030015;28;20397;-72
2022/07/10 05:18:30;;;;;;;4.88;0.63;;;15.60;99.90;;;;;;5028506;28;20044;-72
2022/07/10 05:20:56;;;;;;;5.03;0.57;;;15.60;99.90;;;;;;5027720;28;20042;-72
2022/07/10 05:23:21;;;;;;;3.33;0.50;;;15.60;99.90;;;;;;5029617;28;20025;-70
2022/07/10 05:25:48;;;;;;;3.60;0.45;;;15.60;99.90;;;;;;5030962;28;20045;-71
2022/07/10 05:28:14;;;;;;;3.35;0.32;;;15.60;99.90;;;;;;5029379;28;20490;-72
2022/07/10 05:30:40;;;;;;;7.10;0.88;;;15.60;99.90;;;;;;5029771;28;20041;-72
2022/07/10 05:33:06;;;;;;;3.97;0.30;;;15.70;99.90;;;;;;5037320;28;20036;-72
2022/07/10 05:35:31;;;;;;;2.00;0.65;;;15.70;99.90;;;;;;5036623;28;20401;-72
2022/07/10 05:37:57;;;;;;;4.85;0.55;;;15.70;99.90;;;;;;5038440;28;20038;-71
2022/07/10 05:40:23;;;;;;;1.67;0.30;;;15.70;99.90;;;;;;5035055;28;20037;-70
2022/07/10 05:42:49;;;;;;;4.15;1.05;;;15.80;99.90;;;;;;5037833;28;20038;-71
2022/07/10 05:45:14;;;;;;;3.97;0.50;;;15.80;99.90;;;;;;5034014;28;20037;-72
2022/07/10 05:47:40;;;;;;;2.50;0.40;;;15.80;99.90;;;;;;5033851;28;20040;-72
2022/07/10 05:50:06;;;;;;;4.22;0.60;;;15.90;99.90;;;;;;5037431;28;20038;-71
2022/07/10 05:52:31;;;;;;;3.97;0.47;;;15.90;99.90;;;;;;5039491;28;20029;-72
2022/07/10 05:54:57;;;;;;;3.20;0.47;;;16.00;99.90;;;;;;5038580;28;20038;-72
2022/07/10 05:57:23;;;;;;;2.05;0.28;;;16.00;99.90;;;;;;5032750;28;20057;-71
2022/07/10 05:59:49;;;;;;;3.60;0.50;;;16.10;99.90;;;;;;5031961;28;20489;-72
2022/07/10 06:02:16;;;;;;;3.25;1.10;;;16.10;99.90;;;;;;5032856;28;20030;-72
2022/07/10 06:04:41;;;;;;;7.50;1.65;;;16.20;99.90;;;;;;5031241;28;20061;-72
2022/07/10 06:07:07;;;;;;;4.70;0.70;;;16.30;99.90;;;;;;5034153;28;20053;-69
2022/07/10 06:09:33;;;;;;;1.30;0.30;;;16.30;99.90;;;;;;5032811;28;20091;-72
2022/07/10 06:11:58;;;;;;;3.72;0.75;;;16.30;99.90;;;;;;5032562;28;20064;-72
2022/07/10 06:14:24;;;;;;;1.50;0.30;;;16.30;99.90;;;;;;5032562;28;20037;-71
2022/07/10 06:16:49;;;;;;;4.78;0.73;;;16.40;99.90;;;;;;5032473;28;20034;-72
2022/07/10 06:19:17;;;;;;;6.05;0.75;;;16.50;99.90;;;;;;5029320;28;20038;-72
2022/07/10 06:21:43;;;;;;;6.05;0.40;;;16.50;99.90;;;;;;5032157;28;20556;-72
2022/07/10 06:24:08;;;;;;;3.00;0.82;;;16.50;99.90;;;;;;5031691;28;20037;-71
2022/07/10 06:26:34;;;;;;;5.82;1.30;;;16.60;99.90;;;;;;5031398;28;20037;-72
2022/07/10 06:29:00;;;;;;;3.80;0.60;;;16.60;99.90;;;;;;5031723;28;20029;-72
2022/07/10 06:31:25;;;;;;;5.43;0.43;;;16.60;99.90;;;;;;5032008;28;20033;-70
2022/07/10 06:33:51;;;;;;;2.72;0.30;;;16.70;99.90;;;;;;5029969;28;20113;-72
2022/07/10 06:36:17;;;;;;;4.03;0.47;;;16.70;99.90;;;;;;5030943;28;20386;-72
2022/07/10 06:38:42;;;;;;;4.65;1.10;;;16.80;99.90;;;;;;5031479;28;20195;-72
2022/07/10 06:41:08;;;;;;;1.58;0.40;;;16.70;99.90;;;;;;5031589;28;20113;-70
2022/07/10 06:43:33;;;;;;;6.47;0.40;;;16.70;99.90;;;;;;5031346;28;20076;-72
2022/07/10 06:45:59;;;;;;;2.85;0.55;;;16.70;99.90;;;;;;5030396;28;20044;-72
2022/07/10 06:48:27;;;;;;;3.28;0.73;;;16.60;99.90;;;;;;5031569;28;20044;-72
2022/07/10 06:50:53;;;;;;;1.90;0.43;;;16.60;99.90;;;;;;5031991;28;20045;-70
2022/07/10 06:53:23;;;;;;;5.22;0.40;;;16.60;99.90;;;;;;5028076;28;20044;-71
2022/07/10 06:55:50;;;;;;;1.95;0.63;;;16.60;99.90;;;;;;5032712;28;20026;-71
2022/07/10 06:58:16;;;;;;;2.63;0.50;;;16.70;99.90;;;;;;5025965;28;20217;-71
2022/07/10 07:00:41;;;;;;;5.28;0.38;;;16.70;99.90;;;;;;5032575;28;20513;-70
2022/07/10 07:03:07;;;;;;;4.72;0.55;;;16.70;99.90;;;;;;5039937;28;20037;-72
2022/07/10 07:05:33;;;;;;;7.93;0.50;;;16.70;99.90;;;;;;5034536;28;20029;-72
2022/07/10 07:07:58;;;;;;;4.10;0.40;;;16.80;99.90;;;;;;5039043;28;20584;-72
2022/07/10 07:10:24;;;;;;;8.93;0.77;;;16.90;99.90;;;;;;5042308;28;20037;-71
2022/07/10 07:12:50;;;;;;;2.80;0.68;;;16.90;99.90;;;;;;5040782;28;20088;-72
2022/07/10 07:15:16;;;;;;;4.95;0.95;;;17.00;99.90;;;;;;5037800;28;20057;-73
2022/07/10 07:17:56;;;;;;;2.33;0.60;;;17.00;99.90;;;;;;5034751;28;20414;-72
2022/07/10 07:23:09;;;;;;;2.47;0.30;;;17.00;99.90;;;;;;5029707;28;20040;-71
2022/07/10 07:25:35;;;;;;;5.35;0.57;;;17.00;99.90;;;;;;5031662;28;20025;-73
2022/07/10 07:28:00;;;;;;;4.35;0.65;;;17.10;99.90;;;;;;5029922;28;20128;-72
2022/07/10 07:30:26;;;;;;;3.50;0.73;;;17.10;99.90;;;;;;5029450;28;20029;-72
2022/07/10 07:32:52;;;;;;;1.60;0.40;;;17.20;99.90;;;;;;5027780;28;20087;-73
2022/07/10 07:35:18;;;;;;;3.78;0.93;;;17.20;99.90;;;;;;5029080;28;20042;-73
2022/07/10 07:37:50;;;;;;;2.78;0.32;;;17.20;99.90;;;;;;5028515;28;20038;-72
2022/07/10 07:40:22;;;;;;;2.55;0.52;;;17.20;99.90;;;;;;5032830;28;20034;-71
2022/07/10 07:42:56;;;;;;;3.05;0.40;;;17.20;99.90;;;;;;5033533;28;20029;-73
2022/07/10 07:45:22;;;;;;;3.03;0.30;;;17.20;99.90;;;;;;5024815;28;20028;-72
2022/07/10 07:47:53;;;;;;;2.08;0.40;;;17.20;99.90;;;;;;5028971;28;20044;-73
2022/07/10 07:50:21;;;;;;;8.10;1.75;;;17.20;99.90;;;;;;5025399;28;20087;-72
2022/07/10 07:52:47;;;;;;;1.83;0.50;;;17.30;99.90;;;;;;5033192;28;20037;-73
2022/07/10 07:55:14;;;;;;;0.90;0.35;;;17.50;99.90;;;;;;5028818;28;20033;-72
2022/07/10 07:57:40;;;;;;;2.13;0.30;;;17.60;99.90;;;;;;5027988;28;20125;-71
2022/07/10 08:00:07;;;;;;;4.20;0.40;;;17.70;99.90;;;;;;5026958;28;20113;-70
2022/07/10 08:02:33;;;;;;;5.32;0.60;;;17.90;99.90;;;;;;5027343;28;20033;-72
2022/07/10 08:04:59;;;;;;;3.55;0.40;;;18.00;99.90;;;;;;5022353;28;20386;-72
2022/07/10 08:07:34;;;;;;;4.65;0.70;;;18.10;99.90;;;;;;5030255;28;20067;-71
2022/07/10 08:10:00;;;;;;;3.58;0.63;;;18.20;99.90;;;;;;5027927;28;20032;-72
2022/07/10 08:12:26;;;;;;;4.43;0.55;;;18.20;99.90;;;;;;5026452;28;20029;-71
2022/07/10 08:14:51;;;;;;;1.17;0.30;;;18.30;99.90;;;;;;5026185;28;20513;-72
2022/07/10 08:17:17;;;;;;;1.30;0.30;;;18.40;99.90;;;;;;5028554;28;20184;-73
2022/07/10 08:19:42;;;;;;;3.65;0.70;;;18.50;99.90;;;;;;5028655;28;20061;-72
2022/07/10 08:22:08;;;;;;;3.13;0.40;;;18.60;99.90;;;;;;5028291;28;20037;-72
2022/07/10 08:24:33;;;;;;;5.22;0.50;;;18.70;99.90;;;;;;5027160;28;20060;-73
2022/07/10 08:26:59;;;;;;;2.20;0.40;;;18.90;99.90;;;;;;5029096;28;20026;-72
2022/07/10 08:29:24;;;;;;;2.85;0.32;;;19.40;99.90;;;;;;5029417;28;20052;-71
2022/07/10 08:31:50;;;;;;;2.92;0.38;;;19.80;99.90;;;;;;5028866;28;20069;-72
2022/07/10 08:34:15;;;;;;;3.58;0.60;;;20.20;99.90;;;;;;5028926;28;20028;-73
2022/07/10 08:36:41;;;;;;;1.77;0.30;;;20.40;99.90;;;;;;5026005;28;20076;-71
2022/07/10 08:39:06;;;;;;;3.85;0.60;;;20.50;99.90;;;;;;5025956;28;20053;-73
2022/07/10 08:41:34;;;;;;;2.45;0.30;;;20.70;99.90;;;;;;5028344;28;20029;-73
2022/07/10 08:44:00;;;;;;;1.92;0.38;;;20.80;99.90;;;;;;5027146;28;20653;-73
2022/07/10 08:46:27;;;;;;;4.88;1.08;;;20.60;99.90;;;;;;5028593;28;20040;-72
2022/07/10 08:48:54;;;;;;;0.88;0.40;;;20.50;99.90;;;;;;5026646;28;20041;-73
2022/07/10 08:51:44;;;;;;;1.85;0.43;;;20.40;99.90;;;;;;5027807;28;20033;-73
2022/07/10 08:54:14;;;;;;;2.80;0.25;;;20.20;99.90;;;;;;5028704;28;20037;-72
2022/07/10 08:56:40;;;;;;;6.93;0.60;;;20.10;99.90;;;;;;5029846;28;20025;-73
2022/07/10 08:59:08;;;;;;;2.80;0.50;;;20.00;99.90;;;;;;5029813;28;20045;-73
2022/07/10 09:01:33;;;;;;;1.55;0.40;;;20.00;99.90;;;;;;5029385;28;20037;-73
2022/07/10 09:03:59;;;;;;;1.20;0.40;;;19.90;99.90;;;;;;5029497;28;20036;-73
2022/07/10 09:06:28;;;;;;;1.83;0.70;;;19.70;99.90;;;;;;5028685;28;20574;-72
2022/07/10 09:09:04;;;;;;;0.85;0.38;;;19.70;99.90;;;;;;5030497;28;20037;-73
2022/07/10 09:11:30;;;;;;;5.85;0.88;;;19.90;99.90;;;;;;5028811;28;20037;-70
2022/07/10 09:14:03;;;;;;;3.10;0.35;;;20.10;99.90;;;;;;5030928;28;20494;-70
2022/07/10 09:16:32;;;;;;;2.08;0.45;;;20.30;99.90;;;;;;5033689;28;20045;-70
2022/07/10 09:19:16;;;;;;;3.00;1.02;;;20.40;99.90;;;;;;5033662;28;20033;-70
2022/07/10 09:21:41;;;;;;;0.73;0.47;;;20.60;99.90;;;;;;5028846;28;20057;-71
2022/07/10 09:24:11;;;;;;;1.80;0.50;;;20.60;99.90;;;;;;5032265;28;20049;-72
2022/07/10 09:26:37;;;;;;;1.85;0.55;;;20.70;99.90;;;;;;5033327;28;20061;-72
2022/07/10 09:29:12;;;;;;;5.28;0.65;;;20.70;99.90;;;;;;5032819;28;20033;-72
2022/07/10 09:32:00;;;;;;;0.98;0.38;;;20.60;99.90;;;;;;5033331;28;20129;-72
2022/07/10 09:34:45;;;;;;;1.20;0.45;;;20.50;99.90;;;;;;5029905;28;20559;-71
2022/07/10 09:37:26;;;;;;;1.65;0.32;;;20.70;99.90;;;;;;5028465;28;20037;-71
2022/07/10 09:39:56;;;;;;;1.73;0.30;;;20.80;99.90;;;;;;5030166;28;20037;-72
2022/07/10 09:42:26;;;;;;;2.78;1.17;;;21.00;99.90;;;;;;5032150;28;20022;-71
2022/07/10 09:45:12;;;;;;;5.38;0.60;;;21.00;99.90;;;;;;5031989;28;20120;-72
2022/07/10 09:47:46;;;;;;;1.95;0.30;;;21.10;99.90;;;;;;5032559;28;20034;-72
2022/07/10 09:50:28;;;;;;;1.65;0.32;;;21.10;99.90;;;;;;5028685;28;20041;-72
2022/07/10 09:52:56;;;;;;;1.73;0.82;;;21.10;99.90;;;;;;5029756;28;20430;-72
2022/07/10 09:55:26;;;;;;;1.77;0.65;;;21.10;99.90;;;;;;5032883;28;20036;-72
2022/07/10 09:58:02;;;;;;;3.63;0.77;;;21.10;99.90;;;;;;5029196;28;20477;-72
2022/07/10 10:00:33;;;;;;;5.05;0.50;;;21.30;99.90;;;;;;5035719;28;20070;-70
2022/07/10 10:03:02;;;;;;;1.48;0.40;;;21.40;99.90;;;;;;5034448;28;20030;-73
2022/07/10 10:05:42;;;;;;;1.35;0.50;;;21.60;99.90;;;;;;5034062;28;20104;-71
2022/07/10 10:08:28;;;;;;;4.05;0.30;;;21.60;99.90;;;;;;5026318;28;20026;-72
2022/07/10 10:10:57;;;;;;;2.17;0.73;;;21.70;99.90;;;;;;5030611;28;20119;-70
2022/07/10 10:13:28;;;;;;;2.17;0.28;;;21.70;99.90;;;;;;5030986;28;20037;-72
2022/07/10 10:15:54;;;;;;;0.98;0.20;;;21.70;99.90;;;;;;5033054;28;20041;-72
2022/07/10 10:18:25;;;;;;;0.90;0.10;;;21.60;99.90;;;;;;5034404;28;20044;-72
2022/07/10 10:20:53;;;;;;;2.53;0.80;;;21.50;99.90;;;;;;5031947;28;20091;-72
2022/07/10 10:23:20;;;;;;;5.05;0.60;;;21.50;99.90;;;;;;5029437;28;20045;-72
2022/07/10 10:25:47;;;;;;;1.20;0.40;;;21.30;99.90;;;;;;5030656;28;20041;-71
2022/07/10 10:28:15;;;;;;;0.70;0.25;;;21.30;99.90;;;;;;5031663;28;20486;-71
2022/07/10 10:30:43;;;;;;;2.78;0.35;;;21.40;99.90;;;;;;5030045;28;20037;-71
2022/07/10 10:33:32;;;;;;;1.30;0.28;;;21.40;99.90;;;;;;5032992;28;20489;-72
2022/07/10 10:36:03;;;;;;;2.28;0.70;;;21.50;99.90;;;;;;5032076;28;20172;-71
2022/07/10 10:38:51;;;;;;;1.60;0.52;;;21.50;99.90;;;;;;5031604;28;20034;-72
2022/07/10 10:41:39;;;;;;;0.40;0.20;;;21.70;99.90;;;;;;5028464;28;20562;-72
2022/07/10 10:44:20;;;;;;;1.60;0.20;;;21.80;99.90;;;;;;5025318;28;20038;-72
2022/07/10 10:46:54;;;;;;;2.85;0.63;;;21.80;99.90;;;;;;5028444;28;20061;-70
2022/07/10 10:49:22;;;;;;;2.83;0.30;;;21.90;99.90;;;;;;5031283;28;20033;-72
2022/07/10 10:52:09;;;;;;;1.58;0.30;;;22.00;99.90;;;;;;5029920;28;20034;-72
2022/07/10 10:55:01;;;;;;;3.17;0.75;;;22.10;99.90;;;;;;5030549;28;20031;-72
2022/07/10 10:57:37;;;;;;;2.95;0.68;;;22.10;99.70;;;;;;5030085;28;20132;-71
2022/07/10 11:00:07;;;;;;;1.95;0.52;;;22.20;99.40;;;;;;5030986;28;20112;-70
2022/07/10 11:02:37;;;;;;;0.82;0.20;;;22.20;99.40;;;;;;5032427;28;20033;-71
2022/07/10 11:05:14;;;;;;;3.63;0.40;;;22.10;99.90;;;;;;5029070;28;20032;-72
2022/07/10 11:08:00;;;;;;;3.03;0.60;;;22.20;99.70;;;;;;5033392;28;20041;-73
2022/07/10 11:10:35;;;;;;;0.68;0.17;;;22.10;99.80;;;;;;5031526;28;20660;-69
2022/07/10 11:13:02;;;;;;;6.03;0.47;;;22.20;99.90;;;;;;5030369;28;20065;-72
2022/07/10 11:15:30;;;;;;;4.80;0.55;;;22.40;99.90;;;;;;5029987;28;20393;-70
2022/07/10 11:17:57;;;;;;;2.78;0.47;;;22.30;99.70;;;;;;5030144;28;20037;-72
2022/07/10 11:20:23;;;;;;;2.53;0.57;;;22.40;99.50;;;;;;5029523;28;20125;-72
2022/07/10 11:23:19;;;;;;;0.68;0.22;;;22.40;99.40;;;;;;5024897;28;20053;-72
2022/07/10 11:26:07;;;;;;;0.70;0.25;;;22.40;99.20;;;;;;5028513;28;20099;-72
2022/07/10 11:28:50;;;;;;;1.52;0.50;;;22.40;99.90;;;;;;5028220;28;20041;-71
2022/07/10 11:31:17;;;;;;;5.25;0.60;;;22.40;99.90;;;;;;5024022;28;20068;-72
2022/07/10 11:33:46;;;;;;;2.47;0.10;;;22.40;99.40;;;;;;5027473;28;20403;-72
2022/07/10 11:36:16;;;;;;;5.00;0.32;;;22.40;99.20;;;;;;5026287;28;20033;-72
2022/07/10 11:38:43;;;;;;;1.42;0.10;;;22.40;99.90;;;;;;5028166;28;20037;-72
2022/07/10 11:41:21;;;;;;;4.03;0.30;;;22.60;99.80;;;;;;5027606;28;20034;-72
2022/07/10 11:43:52;;;;;;;2.05;0.22;;;22.70;98.60;;;;;;5026003;28;20132;-72
2022/07/10 11:46:21;;;;;;;1.98;0.63;;;22.80;98.40;;;;;;5027649;28;20112;-72
2022/07/10 11:48:48;;;;;;;1.45;0.30;;;22.80;97.00;;;;;;5027660;28;20464;-72
2022/07/10 11:51:31;;;;;;;2.35;0.38;;;22.60;96.90;;;;;;5025169;28;20086;-70
2022/07/10 11:54:04;;;;;;;1.10;0.28;;;22.50;97.10;;;;;;5032657;28;20040;-72
2022/07/10 11:56:32;;;;;;;1.52;0.30;;;22.40;97.30;;;;;;5025893;28;20034;-71
2022/07/10 11:59:03;;;;;;;2.42;0.30;;;22.50;97.20;;;;;;5024568;28;20037;-71
2022/07/10 12:01:32;;;;;;;0.45;0.20;;;22.70;97.90;;;;;;5025699;28;20091;-71
2022/07/10 12:04:06;;;;;;;2.17;0.63;;;22.90;97.30;;;;;;5026251;28;20370;-71
2022/07/10 12:06:33;;;;;;;1.70;0.30;;;23.10;97.10;;;;;;5024791;28;20713;-69
2022/07/10 12:09:03;;;;;;;0.73;0.40;;;23.10;97.00;;;;;;5029551;28;20033;-70
2022/07/10 12:11:28;;;;;;;;;;;23.10;97.00;;;;;;5027841;28;20037;-70
2022/07/10 12:14:17;;;;;;;1.65;0.20;;;23.20;96.70;;;;;;5026921;28;19928;-70
2022/07/10 12:16:51;;;;;;;1.95;0.43;;;23.30;96.30;;;;;;5026141;28;20041;-72
2022/07/10 12:19:25;;;;;;;1.77;0.73;;;23.30;96.20;;;;;;5023582;28;20462;-70
2022/07/10 12:21:51;;;;;;;1.27;0.22;;;23.30;96.40;;;;;;5026906;28;20033;-69
2022/07/10 12:24:19;;;;;;;0.43;0.10;;;23.40;96.70;;;;;;5022482;28;20030;-69
2022/07/10 12:26:46;;;;;;;3.03;0.30;;;23.60;96.00;;;;;;5027824;28;20083;-69
2022/07/10 12:29:28;;;;;;;1.10;0.40;;;23.50;95.50;;;;;;5027618;28;20184;-69
2022/07/10 12:32:00;;;;;;;1.75;0.22;;;23.50;95.20;;;;;;5025698;28;20140;-68
2022/07/10 12:34:36;;;;;;;2.50;0.40;;;23.50;95.50;;;;;;5027578;28;20078;-69
2022/07/10 12:37:13;;;;;;;1.17;0.45;;;23.50;95.80;;;;;;5024153;28;20064;-70
2022/07/10 12:39:47;;;;;;;0.93;0.30;;;23.50;95.90;;;;;;5026633;28;20091;-69
2022/07/10 12:42:14;;;;;;;1.10;0.45;;;23.40;95.90;;;;;;5028781;28;20033;-70
2022/07/10 12:44:47;;;;;;;1.83;0.38;;;23.30;96.20;;;;;;5027895;28;20021;-70
2022/07/10 12:47:17;;;;;;;1.23;0.38;;;23.30;96.00;;;;;;5023876;28;20409;-70
2022/07/10 12:50:02;;;;;;;0.65;0.22;;;23.40;95.90;;;;;;5025257;28;20120;-70
2022/07/10 12:52:32;;;;;;;0.95;0.20;;;23.30;95.40;;;;;;5024414;28;20091;-69
2022/07/10 12:55:21;;;;;;;1.13;0.40;;;23.20;96.20;;;;;;5023911;28;20044;-69
2022/07/10 12:57:54;;;;;;;3.05;0.63;;;23.20;96.00;;;;;;5023616;28;20041;-69
2022/07/10 13:00:23;;;;;;;1.13;0.30;;;23.20;95.80;;;;;;5025761;28;20041;-68